createdAt,value
2017-11-26T00:00:55.624Z,101234.13
2017-11-26T00:03:21.824Z,101231.59
2017-11-26T00:05:48.024Z,101236.41
2017-11-26T00:08:14.355Z,101231.62
2017-11-26T00:10:40.570Z,101233.42
2017-11-26T00:13:06.820Z,101228.20
2017-11-26T00:15:33.145Z,101237.35
2017-11-26T00:17:59.647Z,101235.62
2017-11-26T00:20:25.911Z,101236.16
2017-11-26T00:22:52.431Z,101231.77
2017-11-26T00:25:18.626Z,101229.53
2017-11-26T00:27:44.831Z,101231.70
2017-11-26T00:30:11.118Z,101228.22
2017-11-26T00:32:37.373Z,101227.75
2017-11-26T00:35:03.559Z,101220.33
2017-11-26T00:37:29.913Z,101219.02
2017-11-26T00:39:56.194Z,101222.98
2017-11-26T00:42:22.627Z,101225.20
2017-11-26T00:44:48.898Z,101229.16
2017-11-26T00:47:15.324Z,101233.93
2017-11-26T00:49:41.537Z,101227.39
2017-11-26T00:52:07.894Z,101230.03
2017-11-26T00:54:34.113Z,101225.25
2017-11-26T00:57:00.328Z,101227.92
2017-11-26T00:59:26.829Z,101229.64
2017-11-26T01:01:53.277Z,101238.39
2017-11-26T01:04:19.468Z,101242.72
2017-11-26T01:06:45.810Z,101246.14
2017-11-26T01:09:12.256Z,101239.58
2017-11-26T01:11:38.493Z,101235.23
2017-11-26T01:14:04.775Z,101233.48
2017-11-26T01:16:30.997Z,101233.95
2017-11-26T01:18:57.183Z,101222.14
2017-11-26T01:21:23.447Z,101224.77
2017-11-26T01:23:49.660Z,101244.00
2017-11-26T01:26:15.886Z,101246.14
2017-11-26T01:28:42.126Z,101244.84
2017-11-26T01:31:08.351Z,101237.37
2017-11-26T01:33:34.873Z,101236.09
2017-11-26T01:36:01.129Z,101236.16
2017-11-26T01:38:27.323Z,101234.02
2017-11-26T01:40:53.531Z,101233.17
2017-11-26T01:43:19.782Z,101230.95
2017-11-26T01:45:45.984Z,101231.47
2017-11-26T01:48:12.313Z,101248.07
2017-11-26T01:50:38.520Z,101247.66
2017-11-26T01:53:04.732Z,101239.79
2017-11-26T01:55:31.025Z,101243.34
2017-11-26T01:57:57.274Z,101235.05
2017-11-26T02:00:23.750Z,101236.34
2017-11-26T02:02:50.025Z,101240.29
2017-11-26T02:05:16.244Z,101228.06
2017-11-26T02:07:42.703Z,101232.45
2017-11-26T02:10:08.962Z,101234.22
2017-11-26T02:12:35.175Z,101231.14
2017-11-26T02:15:01.394Z,101229.43
2017-11-26T02:17:27.896Z,101228.59
2017-11-26T02:19:54.115Z,101232.97
2017-11-26T02:22:20.337Z,101230.33
2017-11-26T02:24:46.608Z,101220.72
2017-11-26T02:27:12.807Z,101216.39
2017-11-26T02:29:39.103Z,101219.00
2017-11-26T02:32:17.631Z,101207.17
2017-11-26T02:34:55.961Z,101209.40
2017-11-26T02:37:22.316Z,101205.03
2017-11-26T02:39:48.785Z,101209.86
2017-11-26T02:42:14.996Z,101209.35
2017-11-26T02:44:41.347Z,101211.63
2017-11-26T02:47:07.829Z,101216.02
2017-11-26T02:49:34.053Z,101219.03
2017-11-26T02:52:00.415Z,101229.11
2017-11-26T02:54:26.640Z,101230.45
2017-11-26T02:56:52.863Z,101233.48
2017-11-26T02:59:19.218Z,101243.12
2017-11-26T03:01:45.427Z,101239.14
2017-11-26T03:04:11.717Z,101238.33
2017-11-26T03:06:38.076Z,101243.14
2017-11-26T03:09:04.299Z,101231.28
2017-11-26T03:11:30.490Z,101234.33
2017-11-26T03:13:56.837Z,101234.38
2017-11-26T03:16:23.062Z,101221.28
2017-11-26T03:18:49.272Z,101225.59
2017-11-26T03:21:15.533Z,101224.73
2017-11-26T03:23:41.838Z,101224.79
2017-11-26T03:26:08.042Z,101233.96
2017-11-26T03:28:34.587Z,101235.31
2017-11-26T03:31:00.922Z,101230.05
2017-11-26T03:33:27.135Z,101223.95
2017-11-26T03:35:53.502Z,101223.91
2017-11-26T03:38:19.795Z,101216.06
2017-11-26T03:40:46.038Z,101219.09
2017-11-26T03:43:12.304Z,101208.17
2017-11-26T03:45:38.547Z,101211.25
2017-11-26T03:48:04.743Z,101213.02
2017-11-26T03:50:31.295Z,101212.98
2017-11-26T03:52:57.497Z,101211.68
2017-11-26T03:55:23.801Z,101211.66
2017-11-26T03:57:50.428Z,101215.17
2017-11-26T04:00:16.639Z,101228.74
2017-11-26T04:02:42.853Z,101218.64
2017-11-26T04:05:09.414Z,101219.59
2017-11-26T04:07:35.616Z,101217.47
2017-11-26T04:10:01.840Z,101215.71
2017-11-26T04:12:28.094Z,101219.73
2017-11-26T04:14:54.308Z,101220.18
2017-11-26T04:17:20.555Z,101227.99
2017-11-26T04:19:46.885Z,101223.66
2017-11-26T04:22:13.320Z,101214.03
2017-11-26T04:24:39.511Z,101209.70
2017-11-26T04:27:05.896Z,101210.23
2017-11-26T04:29:32.331Z,101211.11
2017-11-26T04:31:58.634Z,101203.22
2017-11-26T04:34:24.969Z,101216.36
2017-11-26T04:36:51.425Z,101212.90
2017-11-26T04:39:17.885Z,101215.44
2017-11-26T04:41:44.165Z,101222.42
2017-11-26T04:44:10.394Z,101219.75
2017-11-26T04:46:36.909Z,101231.18
2017-11-26T04:49:03.422Z,101217.22
2017-11-26T04:51:29.635Z,101213.33
2017-11-26T04:53:56.080Z,101207.64
2017-11-26T04:56:22.352Z,101203.30
2017-11-26T04:58:48.561Z,101208.59
2017-11-26T05:01:14.963Z,101210.78
2017-11-26T05:03:41.491Z,101200.28
2017-11-26T05:06:07.702Z,101205.97
2017-11-26T05:08:33.907Z,101199.42
2017-11-26T05:11:00.231Z,101202.86
2017-11-26T05:13:26.437Z,101201.09
2017-11-26T05:15:52.887Z,101204.55
2017-11-26T05:18:19.364Z,101203.22
2017-11-26T05:20:45.576Z,101210.16
2017-11-26T05:23:11.841Z,101212.28
2017-11-26T05:25:44.153Z,101214.45
2017-11-26T05:28:10.422Z,101212.28
2017-11-26T05:30:36.681Z,101211.39
2017-11-26T05:33:02.912Z,101221.00
2017-11-26T05:35:29.122Z,101214.91
2017-11-26T05:37:55.439Z,101217.55
2017-11-26T05:40:21.695Z,101216.27
2017-11-26T05:42:48.232Z,101219.80
2017-11-26T05:45:14.858Z,101221.07
2017-11-26T05:47:41.116Z,101221.94
2017-11-26T05:50:07.357Z,101223.73
2017-11-26T05:52:33.618Z,101222.44
2017-11-26T05:54:59.817Z,101224.73
2017-11-26T05:57:26.260Z,101220.83
2017-11-26T05:59:52.606Z,101221.66
2017-11-26T06:02:18.812Z,101230.37
2017-11-26T06:04:45.251Z,101231.72
2017-11-26T06:07:11.522Z,101223.45
2017-11-26T06:09:37.702Z,101224.71
2017-11-26T06:12:04.044Z,101208.05
2017-11-26T06:14:30.255Z,101211.58
2017-11-26T06:16:56.466Z,101207.19
2017-11-26T06:19:23.027Z,101202.38
2017-11-26T06:21:49.234Z,101206.78
2017-11-26T06:24:15.445Z,101202.00
2017-11-26T06:26:41.703Z,101210.27
2017-11-26T06:29:07.931Z,101208.50
2017-11-26T06:31:34.132Z,101211.16
2017-11-26T06:34:00.477Z,101207.69
2017-11-26T06:36:26.695Z,101215.58
2017-11-26T06:38:52.900Z,101216.42
2017-11-26T06:41:19.187Z,101220.81
2017-11-26T06:43:45.501Z,101227.80
2017-11-26T06:46:11.812Z,101242.23
2017-11-26T06:48:38.150Z,101241.77
2017-11-26T06:51:04.382Z,101242.67
2017-11-26T06:53:30.574Z,101242.22
2017-11-26T06:55:56.923Z,101235.61
2017-11-26T06:58:23.378Z,101238.67
2017-11-26T07:00:49.587Z,101235.61
2017-11-26T07:03:15.842Z,101228.22
2017-11-26T07:05:42.082Z,101227.36
2017-11-26T07:08:08.312Z,101236.48
2017-11-26T07:10:34.692Z,101239.11
2017-11-26T07:13:00.910Z,101231.22
2017-11-26T07:15:27.115Z,101248.72
2017-11-26T07:17:53.369Z,101243.48
2017-11-26T07:20:19.558Z,101258.80
2017-11-26T07:22:45.776Z,101260.13
2017-11-26T07:25:12.060Z,101256.20
2017-11-26T07:27:38.281Z,101254.88
2017-11-26T07:30:04.722Z,101257.05
2017-11-26T07:32:30.971Z,101261.87
2017-11-26T07:34:57.230Z,101263.59
2017-11-26T07:37:23.707Z,101260.13
2017-11-26T07:39:50.251Z,101263.15
2017-11-26T07:42:16.465Z,101266.15
2017-11-26T07:44:42.688Z,101267.88
2017-11-26T07:47:09.033Z,101278.34
2017-11-26T07:49:35.236Z,101272.67
2017-11-26T07:52:01.686Z,101271.80
2017-11-26T07:54:27.959Z,101270.45
2017-11-26T07:56:54.195Z,101274.46
2017-11-26T07:59:20.424Z,101270.07
2017-11-26T08:01:46.923Z,101269.63
2017-11-26T08:04:13.219Z,101277.06
2017-11-26T08:06:39.426Z,101283.12
2017-11-26T08:09:05.780Z,101282.19
2017-11-26T08:11:32.349Z,101281.36
2017-11-26T08:13:58.548Z,101287.96
2017-11-26T08:16:25.061Z,101290.11
2017-11-26T08:18:51.281Z,101282.59
2017-11-26T08:21:17.489Z,101288.30
2017-11-26T08:23:43.841Z,101287.03
2017-11-26T08:26:10.060Z,101290.96
2017-11-26T08:28:36.291Z,101286.50
2017-11-26T08:31:02.587Z,101287.34
2017-11-26T08:33:29.080Z,101296.12
2017-11-26T08:35:55.652Z,101290.89
2017-11-26T08:38:22.095Z,101294.81
2017-11-26T08:40:48.362Z,101293.89
2017-11-26T08:43:14.952Z,101305.75
2017-11-26T08:45:41.368Z,101317.12
2017-11-26T08:48:07.639Z,101314.95
2017-11-26T08:50:33.898Z,101315.39
2017-11-26T08:53:00.215Z,101317.17
2017-11-26T08:55:26.478Z,101321.11
2017-11-26T08:57:52.729Z,101314.55
2017-11-26T09:00:19.069Z,101319.76
2017-11-26T09:02:45.330Z,101318.89
2017-11-26T09:05:11.680Z,101328.94
2017-11-26T09:07:38.062Z,101325.45
2017-11-26T09:10:04.338Z,101325.44
2017-11-26T09:15:02.545Z,101331.13
2017-11-26T09:17:28.816Z,101330.31
2017-11-26T09:19:55.052Z,101335.56
2017-11-26T09:22:21.461Z,101328.57
2017-11-26T09:24:47.954Z,101326.33
2017-11-26T09:27:14.426Z,101318.89
2017-11-26T09:29:40.758Z,101312.73
2017-11-26T09:32:06.961Z,101314.05
2017-11-26T09:34:33.186Z,101317.57
2017-11-26T09:36:59.476Z,101328.87
2017-11-26T09:39:25.691Z,101338.48
2017-11-26T09:41:51.902Z,101330.55
2017-11-26T09:44:18.171Z,101340.55
2017-11-26T09:46:44.397Z,101341.41
2017-11-26T09:49:10.608Z,101336.16
2017-11-26T09:51:36.856Z,101332.72
2017-11-26T09:54:03.095Z,101328.86
2017-11-26T09:56:29.544Z,101341.12
2017-11-26T09:58:55.815Z,101325.80
2017-11-26T10:01:22.259Z,101324.00
2017-11-26T10:03:48.597Z,101320.49
2017-11-26T10:06:14.983Z,101325.27
2017-11-26T10:08:41.227Z,101327.42
2017-11-26T10:11:07.442Z,101319.53
2017-11-26T10:13:33.773Z,101333.98
2017-11-26T10:16:00.036Z,101323.48
2017-11-26T10:18:26.230Z,101324.72
2017-11-26T10:20:52.520Z,101324.36
2017-11-26T10:23:18.733Z,101321.78
2017-11-26T10:25:44.951Z,101316.94
2017-11-26T10:28:11.404Z,101316.13
2017-11-26T10:30:37.624Z,101318.21
2017-11-26T10:33:03.828Z,101311.73
2017-11-26T10:35:30.102Z,101313.52
2017-11-26T10:37:56.477Z,101302.12
2017-11-26T10:40:22.751Z,101303.80
2017-11-26T10:42:49.102Z,101296.81
2017-11-26T10:45:15.338Z,101292.00
2017-11-26T10:47:41.556Z,101284.96
2017-11-26T10:50:07.913Z,101298.02
2017-11-26T10:52:34.135Z,101296.28
2017-11-26T10:55:00.397Z,101294.95
2017-11-26T10:57:26.663Z,101287.49
2017-11-26T10:59:53.144Z,101286.08
2017-11-26T11:02:19.424Z,101286.52
2017-11-26T11:04:45.779Z,101283.48
2017-11-26T11:07:12.103Z,101290.36
2017-11-26T11:09:38.626Z,101282.94
2017-11-26T11:12:04.980Z,101283.40
2017-11-26T11:14:31.198Z,101277.23
2017-11-26T11:16:57.399Z,101289.06
2017-11-26T11:19:23.670Z,101291.20
2017-11-26T11:21:50.923Z,101297.33
2017-11-26T11:24:17.116Z,101299.06
2017-11-26T11:26:43.909Z,101312.30
2017-11-26T11:29:10.367Z,101314.50
2017-11-26T11:31:36.572Z,101313.17
2017-11-26T11:34:02.854Z,101311.41
2017-11-26T11:36:29.109Z,101304.77
2017-11-26T11:38:55.331Z,101307.78
2017-11-26T11:41:21.628Z,101315.64
2017-11-26T11:43:47.846Z,101321.85
2017-11-26T11:46:14.058Z,101324.52
2017-11-26T11:48:40.301Z,101325.47
2017-11-26T11:51:06.522Z,101330.72
2017-11-26T11:53:32.756Z,101326.34
2017-11-26T11:55:59.112Z,101326.37
2017-11-26T11:58:25.333Z,101324.58
2017-11-26T12:00:51.924Z,101329.34
2017-11-26T12:03:18.255Z,101333.70
2017-11-26T12:05:44.468Z,101349.04
2017-11-26T12:08:10.690Z,101343.42
2017-11-26T12:10:37.015Z,101342.11
2017-11-26T12:13:04.327Z,101342.08
2017-11-26T12:15:30.563Z,101346.90
2017-11-26T12:17:56.898Z,101348.59
2017-11-26T12:20:23.130Z,101344.61
2017-11-26T12:22:49.342Z,101349.77
2017-11-26T12:25:15.614Z,101361.54
2017-11-26T12:27:41.837Z,101357.98
2017-11-26T12:30:08.060Z,101361.55
2017-11-26T12:32:34.400Z,101365.48
2017-11-26T12:35:01.059Z,101365.09
2017-11-26T12:37:27.256Z,101369.03
2017-11-26T12:39:53.619Z,101366.41
2017-11-26T12:42:19.855Z,101374.23
2017-11-26T12:44:46.342Z,101372.11
2017-11-26T12:47:12.688Z,101374.75
2017-11-26T12:49:38.914Z,101374.31
2017-11-26T12:52:05.123Z,101383.50
2017-11-26T12:54:31.463Z,101376.91
2017-11-26T12:56:57.929Z,101391.38
2017-11-26T12:59:24.144Z,101385.27
2017-11-26T13:01:50.421Z,101389.20
2017-11-26T13:04:16.635Z,101389.65
2017-11-26T13:06:42.838Z,101390.12
2017-11-26T13:09:09.275Z,101392.30
2017-11-26T13:11:35.673Z,101397.53
2017-11-26T13:14:01.987Z,101398.84
2017-11-26T13:16:28.276Z,101397.11
2017-11-26T13:18:54.515Z,101402.38
2017-11-26T13:21:21.136Z,101395.83
2017-11-26T13:23:47.461Z,101396.71
2017-11-26T13:26:13.667Z,101407.22
2017-11-26T13:28:40.170Z,101401.53
2017-11-26T13:31:06.469Z,101397.56
2017-11-26T13:33:32.696Z,101400.14
2017-11-26T13:35:59.020Z,101395.76
2017-11-26T13:38:25.300Z,101399.73
2017-11-26T13:40:51.650Z,101407.19
2017-11-26T13:43:18.055Z,101408.48
2017-11-26T13:45:44.326Z,101410.64
2017-11-26T13:48:10.823Z,101414.18
2017-11-26T13:50:37.108Z,101421.20
2017-11-26T13:53:03.481Z,101415.03
2017-11-26T13:55:29.721Z,101421.62
2017-11-26T13:57:56.001Z,101413.77
2017-11-26T14:00:22.395Z,101408.00
2017-11-26T14:02:48.634Z,101413.15
2017-11-26T14:05:15.018Z,101410.47
2017-11-26T14:07:41.487Z,101410.45
2017-11-26T14:10:07.822Z,101403.84
2017-11-26T14:12:34.051Z,101402.08
2017-11-26T14:15:00.434Z,101413.02
2017-11-26T14:17:27.057Z,101416.11
2017-11-26T14:19:53.355Z,101410.02
2017-11-26T14:22:19.615Z,101413.50
2017-11-26T14:24:45.849Z,101417.04
2017-11-26T14:27:12.066Z,101415.23
2017-11-26T14:29:38.576Z,101418.76
2017-11-26T14:32:05.028Z,101424.42
2017-11-26T14:34:31.269Z,101417.42
2017-11-26T14:36:57.760Z,101432.33
2017-11-26T14:39:24.004Z,101424.92
2017-11-26T14:41:50.254Z,101427.14
2017-11-26T14:44:16.823Z,101424.55
2017-11-26T14:46:43.032Z,101428.53
2017-11-26T14:49:09.278Z,101422.84
2017-11-26T14:51:35.660Z,101428.98
2017-11-26T14:54:01.943Z,101421.08
2017-11-26T14:56:28.316Z,101424.98
2017-11-26T14:58:54.682Z,101432.42
2017-11-26T15:01:20.909Z,101440.28
2017-11-26T15:03:47.382Z,101443.34
2017-11-26T15:06:13.968Z,101445.55
2017-11-26T15:08:40.422Z,101451.22
2017-11-26T15:11:06.681Z,101443.41
2017-11-26T15:13:33.019Z,101438.62
2017-11-26T15:15:59.276Z,101444.75
2017-11-26T15:18:25.627Z,101449.52
2017-11-26T15:20:51.993Z,101445.63
2017-11-26T15:23:18.259Z,101449.59
2017-11-26T15:25:44.607Z,101457.45
2017-11-26T15:28:11.044Z,101453.98
2017-11-26T15:30:37.575Z,101450.94
2017-11-26T15:33:03.798Z,101452.23
2017-11-26T15:35:30.398Z,101459.67
2017-11-26T15:37:56.687Z,101462.72
2017-11-26T15:40:23.000Z,101461.84
2017-11-26T15:42:49.403Z,101458.72
2017-11-26T15:45:15.633Z,101460.01
2017-11-26T15:47:41.910Z,101464.80
2017-11-26T15:50:08.545Z,101463.09
2017-11-26T15:52:34.755Z,101462.25
2017-11-26T15:55:00.958Z,101465.73
2017-11-26T15:57:27.315Z,101457.85
2017-11-26T15:59:53.561Z,101458.75
2017-11-26T16:02:20.033Z,101459.59
2017-11-26T16:04:46.384Z,101460.92
2017-11-26T16:07:12.776Z,101471.02
2017-11-26T16:09:39.001Z,101475.88
2017-11-26T16:12:05.343Z,101481.98
2017-11-26T16:14:31.589Z,101479.75
2017-11-26T16:16:57.807Z,101482.83
2017-11-26T16:19:24.188Z,101487.63
2017-11-26T16:21:50.399Z,101488.05
2017-11-26T16:24:16.594Z,101494.63
2017-11-26T16:26:42.947Z,101496.77
2017-11-26T16:29:09.195Z,101505.06
2017-11-26T16:31:35.402Z,101508.53
2017-11-26T16:34:02.049Z,101503.30
2017-11-26T16:36:28.272Z,101497.67
2017-11-26T16:38:54.489Z,101501.64
2017-11-26T16:41:20.809Z,101498.14
2017-11-26T16:43:47.067Z,101498.13
2017-11-26T16:46:13.532Z,101504.30
2017-11-26T16:48:39.919Z,101506.91
2017-11-26T16:51:06.485Z,101501.66
2017-11-26T16:53:32.745Z,101504.28
2017-11-26T16:55:59.189Z,101508.66
2017-11-26T16:58:25.791Z,101509.93
2017-11-26T17:00:52.104Z,101508.22
2017-11-26T17:03:18.385Z,101507.30
2017-11-26T17:05:44.699Z,101512.55
2017-11-26T17:08:10.944Z,101512.11
2017-11-26T17:13:09.069Z,101512.09
2017-11-26T17:15:35.551Z,101513.81
2017-11-26T17:18:01.930Z,101508.14
2017-11-26T17:20:28.208Z,101512.53
2017-11-26T17:22:54.678Z,101509.06
2017-11-26T17:25:21.069Z,101509.98
2017-11-26T17:27:47.294Z,101509.08
2017-11-26T17:30:13.684Z,101516.53
2017-11-26T17:32:40.051Z,101515.69
2017-11-26T17:35:06.306Z,101514.34
2017-11-26T17:37:32.540Z,101517.84
2017-11-26T17:39:58.907Z,101529.20
2017-11-26T17:42:25.157Z,101521.33
2017-11-26T17:44:51.507Z,101524.38
2017-11-26T17:47:17.752Z,101524.78
2017-11-26T17:49:50.000Z,101526.56
2017-11-26T17:52:16.223Z,101531.36
2017-11-26T17:54:42.736Z,101537.46
2017-11-26T17:57:08.977Z,101538.78
2017-11-26T17:59:35.189Z,101537.53
2017-11-26T18:02:01.524Z,101535.77
2017-11-26T18:04:27.776Z,101544.52
2017-11-26T18:06:53.997Z,101531.42
2017-11-26T18:09:20.499Z,101540.17
2017-11-26T18:11:46.940Z,101544.08
2017-11-26T18:14:13.203Z,101545.84
2017-11-26T18:16:39.788Z,101547.17
2017-11-26T18:19:06.007Z,101541.91
2017-11-26T18:21:32.222Z,101548.48
2017-11-26T18:23:58.920Z,101540.16
2017-11-26T18:26:25.427Z,101537.52
2017-11-26T18:28:51.640Z,101538.84
2017-11-26T18:31:17.964Z,101540.59
2017-11-26T18:33:44.193Z,101546.72
2017-11-26T18:36:10.416Z,101548.00
2017-11-26T18:38:36.700Z,101548.50
2017-11-26T18:41:02.909Z,101553.31
2017-11-26T18:43:29.129Z,101550.19
2017-11-26T18:45:55.460Z,101550.20
2017-11-26T18:48:21.717Z,101559.41
2017-11-26T18:50:47.936Z,101559.37
2017-11-26T18:53:14.280Z,101570.72
2017-11-26T18:55:40.487Z,101561.56
2017-11-26T18:58:06.731Z,101565.02
2017-11-26T19:00:33.004Z,101564.61
2017-11-26T19:02:59.224Z,101578.13
2017-11-26T19:05:25.456Z,101576.84
2017-11-26T19:07:51.733Z,101580.34
2017-11-26T19:10:18.173Z,101589.06
2017-11-26T19:12:44.392Z,101586.44
2017-11-26T19:15:10.740Z,101595.20
2017-11-26T19:17:36.940Z,101593.02
2017-11-26T19:20:03.169Z,101587.34
2017-11-26T19:22:29.791Z,101600.48
2017-11-26T19:24:55.990Z,101607.48
2017-11-26T19:27:22.214Z,101609.66
2017-11-26T19:29:48.582Z,101600.48
2017-11-26T19:32:14.803Z,101603.14
2017-11-26T19:34:41.044Z,101614.50
2017-11-26T19:37:07.379Z,101613.16
2017-11-26T19:39:33.571Z,101605.28
2017-11-26T19:41:59.782Z,101607.91
2017-11-26T19:44:26.396Z,101617.52
2017-11-26T19:46:52.627Z,101614.86
2017-11-26T19:49:18.904Z,101617.08
2017-11-26T19:51:45.176Z,101617.49
2017-11-26T19:54:11.444Z,101617.95
2017-11-26T19:56:37.707Z,101609.61
2017-11-26T19:59:04.850Z,101616.22
2017-11-26T20:01:31.073Z,101611.88
2017-11-26T20:03:57.322Z,101614.92
2017-11-26T20:06:23.917Z,101615.82
2017-11-26T20:08:50.174Z,101621.01
2017-11-26T20:11:16.438Z,101616.61
2017-11-26T20:13:42.744Z,101612.22
2017-11-26T20:16:09.307Z,101611.80
2017-11-26T20:18:35.530Z,101602.17
2017-11-26T20:21:01.787Z,101597.39
2017-11-26T20:23:27.987Z,101591.25
2017-11-26T20:25:54.196Z,101598.23
2017-11-26T20:28:20.512Z,101601.31
2017-11-26T20:30:46.729Z,101590.84
2017-11-26T20:33:12.949Z,101587.31
2017-11-26T20:35:45.098Z,101584.70
2017-11-26T20:38:11.311Z,101584.27
2017-11-26T20:40:37.507Z,101585.18
2017-11-26T20:43:04.013Z,101589.14
2017-11-26T20:45:30.236Z,101598.71
2017-11-26T20:47:56.493Z,101606.56
2017-11-26T20:50:22.840Z,101606.62
2017-11-26T20:52:49.028Z,101612.33
2017-11-26T20:55:15.340Z,101617.55
2017-11-26T20:57:41.606Z,101616.20
2017-11-26T21:00:08.051Z,101621.01
2017-11-26T21:02:34.251Z,101616.61
2017-11-26T21:05:00.510Z,101622.75
2017-11-26T21:07:27.061Z,101623.61
2017-11-26T21:09:53.495Z,101615.31
2017-11-26T21:12:19.775Z,101614.41
2017-11-26T21:14:45.986Z,101610.06
2017-11-26T21:17:12.264Z,101610.11
2017-11-26T21:19:38.531Z,101603.55
2017-11-26T21:22:04.829Z,101610.98
2017-11-26T21:24:31.353Z,101607.89
2017-11-26T21:26:57.706Z,101607.88
2017-11-26T21:29:23.923Z,101600.47
2017-11-26T21:31:50.139Z,101598.30
2017-11-26T21:34:16.408Z,101600.07
2017-11-26T21:36:42.609Z,101605.78
2017-11-26T21:39:08.832Z,101612.33
2017-11-26T21:41:35.092Z,101609.25
2017-11-26T21:44:01.309Z,101610.95
2017-11-26T21:46:27.511Z,101610.95
2017-11-26T21:48:53.800Z,101616.20
2017-11-26T21:51:19.996Z,101603.09
2017-11-26T21:53:46.227Z,101605.70
2017-11-26T21:56:12.474Z,101603.54
2017-11-26T21:58:38.695Z,101604.85
2017-11-26T22:01:04.932Z,101605.72
2017-11-26T22:03:31.280Z,101610.09
2017-11-26T22:05:57.478Z,101609.69
2017-11-26T22:08:23.695Z,101610.17
2017-11-26T22:10:56.118Z,101607.50
2017-11-26T22:13:22.365Z,101603.14
2017-11-26T22:15:48.806Z,101600.08
2017-11-26T22:18:15.053Z,101596.16
2017-11-26T22:20:41.269Z,101599.66
2017-11-26T22:23:07.475Z,101606.22
2017-11-26T22:25:33.847Z,101610.62
2017-11-26T22:28:00.084Z,101608.44
2017-11-26T22:30:26.285Z,101609.31
2017-11-26T22:32:52.630Z,101608.88
2017-11-26T22:35:18.832Z,101602.77
2017-11-26T22:37:45.053Z,101611.56
2017-11-26T22:40:11.326Z,101599.78
2017-11-26T22:42:37.521Z,101608.91
2017-11-26T22:45:03.737Z,101614.20
2017-11-26T22:47:29.992Z,101597.56
2017-11-26T22:49:56.212Z,101613.73
2017-11-26T22:52:22.414Z,101612.46
2017-11-26T22:54:48.695Z,101615.06
2017-11-26T22:57:14.895Z,101614.20
2017-11-26T22:59:41.153Z,101619.89
2017-11-26T23:02:07.602Z,101618.56
2017-11-26T23:04:49.486Z,101615.04
2017-11-26T23:07:15.739Z,101616.36
2017-11-26T23:09:41.982Z,101620.78
2017-11-26T23:12:08.203Z,101606.37
2017-11-26T23:14:34.467Z,101625.58
2017-11-26T23:17:00.677Z,101636.05
2017-11-26T23:19:26.892Z,101632.54
2017-11-26T23:21:53.248Z,101635.64
2017-11-26T23:24:19.709Z,101637.36
2017-11-26T23:26:45.924Z,101630.34
2017-11-26T23:29:12.197Z,101621.61
2017-11-26T23:31:38.404Z,101620.73
2017-11-26T23:34:04.608Z,101598.00
2017-11-26T23:36:30.882Z,101594.10
2017-11-26T23:38:57.087Z,101598.48
2017-11-26T23:41:23.278Z,101599.77
2017-11-26T23:43:49.612Z,101599.34
2017-11-26T23:46:15.819Z,101601.96
2017-11-26T23:48:42.387Z,101604.20
2017-11-26T23:51:08.684Z,101602.86
2017-11-26T23:53:34.949Z,101613.34
2017-11-26T23:56:01.144Z,101613.78
2017-11-26T23:58:27.494Z,101612.05
